createdAt,value
2023-03-24T00:00:22.614Z,9.745590
2023-03-24T00:01:22.593Z,9.745383
2023-03-24T00:02:22.658Z,9.745400
2023-03-24T00:03:22.672Z,9.745568
2023-03-24T00:04:22.986Z,9.745353
2023-03-24T00:05:22.904Z,9.745440
2023-03-24T00:06:22.740Z,9.745533
2023-03-24T00:07:25.089Z,9.745872
2023-03-24T00:08:22.526Z,9.745751
2023-03-24T00:09:22.531Z,9.745398
2023-03-24T00:10:22.723Z,9.745196
2023-03-24T00:11:22.507Z,9.745686
2023-03-24T00:12:22.487Z,9.745264
2023-03-24T00:13:22.490Z,9.744864
2023-03-24T00:14:22.479Z,9.744974
2023-03-24T00:15:22.495Z,9.745159
2023-03-24T00:16:22.500Z,9.745150
2023-03-24T00:17:22.457Z,9.744583
2023-03-24T00:18:22.448Z,9.745074
2023-03-24T00:19:22.440Z,9.745190
2023-03-24T00:20:22.589Z,9.745382
2023-03-24T00:21:22.423Z,9.745615
2023-03-24T00:22:22.412Z,9.745677
2023-03-24T00:23:22.408Z,9.745383
2023-03-24T00:24:22.402Z,9.745070
2023-03-24T00:25:22.418Z,9.745365
2023-03-24T00:26:22.383Z,9.745279
2023-03-24T00:27:22.376Z,9.745506
2023-03-24T00:28:22.369Z,9.745519
2023-03-24T00:29:22.387Z,9.745450
2023-03-24T00:30:22.353Z,9.745170
2023-03-24T00:31:22.438Z,9.745192
2023-03-24T00:32:22.340Z,9.745366
2023-03-24T00:33:22.330Z,9.745436
2023-03-24T00:34:22.326Z,9.745244
2023-03-24T00:35:22.316Z,9.745175
2023-03-24T00:36:22.338Z,9.745369
2023-03-24T00:37:22.311Z,9.745276
2023-03-24T00:38:22.300Z,9.745418
2023-03-24T00:39:22.293Z,9.745275
2023-03-24T00:40:22.288Z,9.745331
2023-03-24T00:41:22.304Z,9.745332
2023-03-24T00:42:22.262Z,9.745055
2023-03-24T00:43:22.259Z,9.745152
2023-03-24T00:44:22.255Z,9.745275
2023-03-24T00:45:22.237Z,9.745399
2023-03-24T00:46:22.317Z,9.745507
2023-03-24T00:47:22.223Z,9.745373
2023-03-24T00:48:22.212Z,9.745408
2023-03-24T00:49:22.208Z,9.745431
2023-03-24T00:50:22.196Z,9.745377
2023-03-24T00:51:22.219Z,9.745332
2023-03-24T00:52:22.187Z,9.745211
2023-03-24T00:53:22.172Z,9.745392
2023-03-24T00:54:22.165Z,9.745376
2023-03-24T00:55:22.156Z,9.745344
2023-03-24T00:56:22.177Z,9.745419
2023-03-24T00:57:22.266Z,9.745201
2023-03-24T00:58:22.162Z,9.745055
2023-03-24T00:59:23.127Z,9.745012
2023-03-24T01:00:22.135Z,9.745309
2023-03-24T01:01:22.206Z,9.745468
2023-03-24T01:02:22.370Z,9.745697
2023-03-24T01:03:22.107Z,9.745726
2023-03-24T01:04:22.090Z,9.745578
2023-03-24T01:05:22.083Z,9.745667
2023-03-24T01:06:22.103Z,9.745664
2023-03-24T01:07:22.062Z,9.745696
2023-03-24T01:08:22.051Z,9.745835
2023-03-24T01:09:22.042Z,9.745865
2023-03-24T01:10:22.040Z,9.745721
2023-03-24T01:11:22.053Z,9.745565
2023-03-24T01:12:22.020Z,9.745611
2023-03-24T01:13:22.009Z,9.745640
2023-03-24T01:14:22.008Z,9.745682
2023-03-24T01:15:21.997Z,9.745559
2023-03-24T01:16:22.041Z,9.745612
2023-03-24T01:17:21.983Z,9.745556
2023-03-24T01:18:21.971Z,9.745600
2023-03-24T01:19:22.240Z,9.745615
2023-03-24T01:20:21.953Z,9.745585
2023-03-24T01:21:21.980Z,9.745622
2023-03-24T01:22:21.941Z,9.745695
2023-03-24T01:23:21.931Z,9.745589
2023-03-24T01:24:21.923Z,9.745567
2023-03-24T01:25:21.932Z,9.745528
2023-03-24T01:26:21.939Z,9.745477
2023-03-24T01:27:21.895Z,9.745374
2023-03-24T01:28:21.885Z,9.745370
2023-03-24T01:29:21.878Z,9.745489
2023-03-24T01:30:21.881Z,9.745761
2023-03-24T01:31:21.928Z,9.745749
2023-03-24T01:32:21.877Z,9.745861
2023-03-24T01:33:21.848Z,9.745389
2023-03-24T01:34:21.843Z,9.745445
2023-03-24T01:35:21.837Z,9.745348
2023-03-24T01:36:21.849Z,9.745415
2023-03-24T01:37:21.819Z,9.745413
2023-03-24T01:38:21.814Z,9.745426
2023-03-24T01:39:21.797Z,9.745627
2023-03-24T01:40:21.923Z,9.745541
2023-03-24T01:41:21.816Z,9.745488
2023-03-24T01:42:21.779Z,9.745279
2023-03-24T01:43:21.770Z,9.745347
2023-03-24T01:44:21.772Z,9.745578
2023-03-24T01:45:21.759Z,9.745524
2023-03-24T01:46:21.829Z,9.745436
2023-03-24T01:47:21.744Z,9.745136
2023-03-24T01:48:21.739Z,9.745291
2023-03-24T01:49:21.733Z,9.745474
2023-03-24T01:50:21.715Z,9.745383
2023-03-24T01:51:21.746Z,9.745461
2023-03-24T01:52:21.708Z,9.745593
2023-03-24T01:53:21.699Z,9.745630
2023-03-24T01:54:21.698Z,9.745428
2023-03-24T01:55:21.690Z,9.745273
2023-03-24T01:56:21.697Z,9.745081
2023-03-24T01:57:21.670Z,9.745381
2023-03-24T01:58:21.660Z,9.745402
2023-03-24T01:59:21.650Z,9.745285
2023-03-24T02:00:21.642Z,9.745461
2023-03-24T02:01:21.698Z,9.745296
2023-03-24T02:02:21.628Z,9.745399
2023-03-24T02:03:21.618Z,9.745562
2023-03-24T02:04:21.656Z,9.745638
2023-03-24T02:05:21.606Z,9.745475
2023-03-24T02:06:21.618Z,9.745343
2023-03-24T02:07:21.587Z,9.745497
2023-03-24T02:08:22.576Z,9.745540
2023-03-24T02:09:21.580Z,9.745523
2023-03-24T02:10:21.561Z,9.745443
2023-03-24T02:11:21.580Z,9.745489
2023-03-24T02:12:21.550Z,9.745624
2023-03-24T02:13:21.542Z,9.745587
2023-03-24T02:14:21.536Z,9.745330
2023-03-24T02:15:21.529Z,9.745583
2023-03-24T02:16:21.598Z,9.745566
2023-03-24T02:17:21.508Z,9.745482
2023-03-24T02:18:21.516Z,9.745304
2023-03-24T02:19:22.988Z,9.745414
2023-03-24T02:20:21.493Z,9.745656
2023-03-24T02:21:21.516Z,9.745619
2023-03-24T02:22:21.475Z,9.745429
2023-03-24T02:23:21.460Z,9.745615
2023-03-24T02:24:21.466Z,9.745635
2023-03-24T02:25:21.462Z,9.745650
2023-03-24T02:26:21.477Z,9.745669
2023-03-24T02:27:21.430Z,9.745667
2023-03-24T02:28:21.426Z,9.745782
2023-03-24T02:29:21.411Z,9.745465
2023-03-24T02:30:21.408Z,9.745539
2023-03-24T02:31:21.436Z,9.745656
2023-03-24T02:32:21.419Z,9.745254
2023-03-24T02:33:21.383Z,9.745478
2023-03-24T02:34:21.380Z,9.745562
2023-03-24T02:35:21.372Z,9.745660
2023-03-24T02:36:21.387Z,9.745732
2023-03-24T02:37:21.391Z,9.745798
2023-03-24T02:38:21.348Z,9.745763
2023-03-24T02:39:21.339Z,9.745689
2023-03-24T02:40:21.345Z,9.745652
2023-03-24T02:41:21.327Z,9.745855
2023-03-24T02:42:21.345Z,9.745688
2023-03-24T02:43:21.316Z,9.745611
2023-03-24T02:44:21.302Z,9.745462
2023-03-24T02:45:21.295Z,9.745499
2023-03-24T02:46:21.336Z,9.745251
2023-03-24T02:47:21.403Z,9.745495
2023-03-24T02:48:21.274Z,9.745481
2023-03-24T02:49:21.266Z,9.745408
2023-03-24T02:50:21.259Z,9.745592
2023-03-24T02:51:21.249Z,9.745641
2023-03-24T02:52:21.263Z,9.746887
2023-03-24T02:53:21.237Z,9.748741
2023-03-24T02:54:21.227Z,9.749010
2023-03-24T02:55:21.213Z,9.746545
2023-03-24T02:56:21.206Z,9.746315
2023-03-24T02:57:21.225Z,9.745544
2023-03-24T02:58:21.193Z,9.745268
2023-03-24T02:59:21.180Z,9.745721
2023-03-24T03:00:21.192Z,9.745634
2023-03-24T03:01:21.201Z,9.745332
2023-03-24T03:02:21.231Z,9.745644
2023-03-24T03:03:21.155Z,9.746183
2023-03-24T03:04:21.187Z,9.746319
2023-03-24T03:05:21.149Z,9.745871
2023-03-24T03:06:21.135Z,9.745713
2023-03-24T03:07:21.150Z,9.745504
2023-03-24T03:08:21.159Z,9.745690
2023-03-24T03:09:21.115Z,9.745864
2023-03-24T03:10:21.119Z,9.745244
2023-03-24T03:11:21.094Z,9.745628
2023-03-24T03:12:21.115Z,9.745938
2023-03-24T03:13:21.091Z,9.746264
2023-03-24T03:14:21.076Z,9.746455
2023-03-24T03:15:21.076Z,9.746018
2023-03-24T03:16:21.136Z,9.745917
2023-03-24T03:17:21.086Z,9.745785
2023-03-24T03:18:21.052Z,9.745139
2023-03-24T03:19:21.038Z,9.745391
2023-03-24T03:20:21.036Z,9.745538
2023-03-24T03:21:21.028Z,9.745791
2023-03-24T03:22:21.058Z,9.745749
2023-03-24T03:23:21.007Z,9.745484
2023-03-24T03:24:20.996Z,9.745533
2023-03-24T03:25:20.993Z,9.745393
2023-03-24T03:26:20.984Z,9.745616
2023-03-24T03:27:21.001Z,9.745605
2023-03-24T03:28:20.973Z,9.745702
2023-03-24T03:29:20.970Z,9.745528
2023-03-24T03:30:20.966Z,9.745576
2023-03-24T03:31:21.006Z,9.745369
2023-03-24T03:32:20.985Z,9.745525
2023-03-24T03:33:21.934Z,9.745521
2023-03-24T03:34:20.937Z,9.745577
2023-03-24T03:35:20.921Z,9.745420
2023-03-24T03:36:20.954Z,9.745392
2023-03-24T03:37:20.923Z,9.745509
2023-03-24T03:38:20.891Z,9.745335
2023-03-24T03:39:20.878Z,9.745308
2023-03-24T03:40:20.872Z,9.745482
2023-03-24T03:41:20.866Z,9.745433
2023-03-24T03:42:20.887Z,9.745420
2023-03-24T03:43:20.848Z,9.745481
2023-03-24T03:44:20.846Z,9.745498
2023-03-24T03:45:20.841Z,9.745499
2023-03-24T03:46:20.858Z,9.745506
2023-03-24T03:47:20.848Z,9.745467
2023-03-24T03:48:20.811Z,9.745459
2023-03-24T03:49:20.801Z,9.745405
2023-03-24T03:50:20.796Z,9.745273
2023-03-24T03:51:20.788Z,9.745478
2023-03-24T03:52:20.780Z,9.745415
2023-03-24T03:53:20.805Z,9.745473
2023-03-24T03:54:20.760Z,9.745530
2023-03-24T03:55:20.751Z,9.745571
2023-03-24T03:56:20.755Z,9.745582
2023-03-24T03:57:20.737Z,9.745441
2023-03-24T03:58:20.756Z,9.745586
2023-03-24T03:59:20.722Z,9.745567
2023-03-24T04:00:20.833Z,9.745435
2023-03-24T04:01:20.704Z,9.745640
2023-03-24T04:02:20.693Z,9.745436
2023-03-24T04:03:20.808Z,9.745423
2023-03-24T04:04:20.695Z,9.745572
2023-03-24T04:05:20.676Z,9.745452
2023-03-24T04:06:20.669Z,9.745352
2023-03-24T04:07:20.668Z,9.745635
2023-03-24T04:08:20.680Z,9.745490
2023-03-24T04:09:20.650Z,9.745532
2023-03-24T04:10:20.646Z,9.745440
2023-03-24T04:11:20.637Z,9.745333
2023-03-24T04:12:20.633Z,9.745363
2023-03-24T04:13:20.652Z,9.745360
2023-03-24T04:14:20.636Z,9.745591
2023-03-24T04:15:20.650Z,9.745460
2023-03-24T04:16:20.655Z,9.745440
2023-03-24T04:17:20.759Z,9.745429
2023-03-24T04:18:20.629Z,9.745622
2023-03-24T04:19:20.565Z,9.745481
2023-03-24T04:20:20.572Z,9.745518
2023-03-24T04:21:20.554Z,9.745431
2023-03-24T04:22:20.559Z,9.745461
2023-03-24T04:23:20.561Z,9.745464
2023-03-24T04:24:20.561Z,9.745422
2023-03-24T04:25:20.573Z,9.745399
2023-03-24T04:26:20.508Z,9.745376
2023-03-24T04:27:20.514Z,9.745379
2023-03-24T04:28:20.542Z,9.745410
2023-03-24T04:29:20.493Z,9.745305
2023-03-24T04:30:20.485Z,9.745193
2023-03-24T04:31:20.531Z,9.745289
2023-03-24T04:32:20.467Z,9.745484
2023-03-24T04:33:20.487Z,9.745818
2023-03-24T04:34:20.464Z,9.745673
2023-03-24T04:35:20.451Z,9.745490
2023-03-24T04:36:20.484Z,9.745720
2023-03-24T04:37:20.425Z,9.745717
2023-03-24T04:38:20.420Z,9.745580
2023-03-24T04:39:20.443Z,9.745477
2023-03-24T04:40:20.401Z,9.745537
2023-03-24T04:41:20.399Z,9.745416
2023-03-24T04:42:20.410Z,9.745265
2023-03-24T04:43:20.377Z,9.745365
2023-03-24T04:44:20.402Z,9.745454
2023-03-24T04:45:20.361Z,9.745517
2023-03-24T04:46:20.394Z,9.745478
2023-03-24T04:47:20.356Z,9.745537
2023-03-24T04:48:20.339Z,9.745478
2023-03-24T04:49:20.353Z,9.745251
2023-03-24T04:50:20.326Z,9.745392
2023-03-24T04:51:20.312Z,9.745581
2023-03-24T04:52:20.305Z,9.745354
2023-03-24T04:53:20.305Z,9.745532
2023-03-24T04:54:20.318Z,9.745656
2023-03-24T04:55:20.283Z,9.745261
2023-03-24T04:56:20.297Z,9.745456
2023-03-24T04:57:20.270Z,9.745326
2023-03-24T04:58:20.258Z,9.745409
2023-03-24T04:59:20.288Z,9.745539
2023-03-24T05:00:20.270Z,9.745558
2023-03-24T05:01:20.248Z,9.745560
2023-03-24T05:02:21.690Z,9.745564
2023-03-24T05:03:21.219Z,9.745533
2023-03-24T05:04:20.246Z,9.745426
2023-03-24T05:05:20.189Z,9.745528
2023-03-24T05:06:21.189Z,9.745448
2023-03-24T05:07:21.186Z,9.745438
2023-03-24T05:08:20.183Z,9.745420
2023-03-24T05:09:20.197Z,9.745405
2023-03-24T05:10:21.919Z,9.745885
2023-03-24T05:11:21.168Z,9.745728
2023-03-24T05:12:20.158Z,9.745424
2023-03-24T05:13:20.150Z,9.745253
2023-03-24T05:14:20.159Z,9.744877
2023-03-24T05:15:20.134Z,9.745157
2023-03-24T05:16:20.147Z,9.745605
2023-03-24T05:17:20.109Z,9.745353
2023-03-24T05:18:20.101Z,9.745479
2023-03-24T05:19:20.118Z,9.745484
2023-03-24T05:20:20.084Z,9.745502
2023-03-24T05:21:20.079Z,9.745834
2023-03-24T05:22:20.073Z,9.745486
2023-03-24T05:23:20.064Z,9.745104
2023-03-24T05:24:20.075Z,9.744890
2023-03-24T05:25:20.052Z,9.745185
2023-03-24T05:26:20.049Z,9.745193
2023-03-24T05:27:20.035Z,9.745075
2023-03-24T05:28:20.022Z,9.745115
2023-03-24T05:29:20.052Z,9.745251
2023-03-24T05:30:20.009Z,9.745389
2023-03-24T05:31:20.042Z,9.745646
2023-03-24T05:32:19.996Z,9.745470
2023-03-24T05:33:19.986Z,9.745089
2023-03-24T05:34:20.366Z,9.745296
2023-03-24T05:35:19.964Z,9.745667
2023-03-24T05:36:19.966Z,9.745582
2023-03-24T05:37:19.952Z,9.745524
2023-03-24T05:38:19.955Z,9.745308
2023-03-24T05:39:19.940Z,9.745168
2023-03-24T05:40:20.018Z,9.745296
2023-03-24T05:41:19.928Z,9.745388
2023-03-24T05:42:19.914Z,9.745287
2023-03-24T05:43:19.898Z,9.745348
2023-03-24T05:44:19.895Z,9.745426
2023-03-24T05:45:19.935Z,9.745385
2023-03-24T05:46:19.916Z,9.745771
2023-03-24T05:47:19.869Z,9.745686
2023-03-24T05:48:19.870Z,9.746398
2023-03-24T05:49:19.853Z,9.745821
2023-03-24T05:50:19.889Z,9.745739
2023-03-24T05:51:19.843Z,9.745860
2023-03-24T05:52:19.833Z,9.745842
2023-03-24T05:53:19.821Z,9.745785
2023-03-24T05:54:19.822Z,9.745828
2023-03-24T05:55:19.874Z,9.745837
2023-03-24T05:56:19.842Z,9.745703
2023-03-24T05:57:19.798Z,9.745669
2023-03-24T05:58:19.794Z,9.745851
2023-03-24T05:59:19.786Z,9.745845
2023-03-24T06:00:19.798Z,9.745558
2023-03-24T06:01:19.763Z,9.745353
2023-03-24T06:02:19.773Z,9.745562
2023-03-24T06:03:19.830Z,9.745597
2023-03-24T06:04:19.795Z,9.745575
2023-03-24T06:05:19.751Z,9.745738
2023-03-24T06:06:19.721Z,9.745763
2023-03-24T06:07:19.714Z,9.745733
2023-03-24T06:08:19.724Z,9.745481
2023-03-24T06:09:19.722Z,9.745472
2023-03-24T06:10:19.723Z,9.745961
2023-03-24T06:11:19.684Z,9.745314
2023-03-24T06:12:19.681Z,9.745592
2023-03-24T06:13:19.670Z,9.745683
2023-03-24T06:14:19.660Z,9.745683
2023-03-24T06:15:19.686Z,9.745620
2023-03-24T06:16:19.690Z,9.745511
2023-03-24T06:17:19.647Z,9.745623
2023-03-24T06:18:19.631Z,9.745481
2023-03-24T06:19:19.620Z,9.745397
2023-03-24T06:20:19.647Z,9.745548
2023-03-24T06:21:19.612Z,9.745514
2023-03-24T06:22:19.605Z,9.745450
2023-03-24T06:23:19.600Z,9.745597
2023-03-24T06:24:19.594Z,9.745576
2023-03-24T06:25:19.604Z,9.745922
2023-03-24T06:26:19.568Z,9.745911
2023-03-24T06:27:19.568Z,9.745860
2023-03-24T06:28:19.566Z,9.745438
2023-03-24T06:29:19.547Z,9.745174
2023-03-24T06:30:19.572Z,9.745412
2023-03-24T06:31:19.582Z,9.745562
2023-03-24T06:32:19.537Z,9.745654
2023-03-24T06:33:19.515Z,9.746090
2023-03-24T06:34:19.511Z,9.745928
2023-03-24T06:35:19.532Z,9.745708
2023-03-24T06:36:19.496Z,9.745762
2023-03-24T06:37:19.478Z,9.745521
2023-03-24T06:38:19.479Z,9.745728
2023-03-24T06:39:19.472Z,9.745885
2023-03-24T06:40:19.515Z,9.745590
2023-03-24T06:41:19.453Z,9.745493
2023-03-24T06:42:19.445Z,9.745593
2023-03-24T06:43:19.437Z,9.745629
2023-03-24T06:44:19.424Z,9.745565
2023-03-24T06:45:19.447Z,9.745516
2023-03-24T06:46:19.430Z,9.745268
2023-03-24T06:47:19.420Z,9.745216
2023-03-24T06:48:19.401Z,9.745600
2023-03-24T06:49:19.390Z,9.745614
2023-03-24T06:50:19.411Z,9.745653
2023-03-24T06:51:19.407Z,9.745352
2023-03-24T06:52:19.368Z,9.745591
2023-03-24T06:53:19.353Z,9.745687
2023-03-24T06:54:19.352Z,9.745520
2023-03-24T06:55:19.345Z,9.745512
2023-03-24T06:56:19.362Z,9.745569
2023-03-24T06:57:19.327Z,9.745651
2023-03-24T06:58:19.316Z,9.745530
2023-03-24T06:59:19.309Z,9.745575
2023-03-24T07:00:19.359Z,9.745624
2023-03-24T07:01:19.343Z,9.745425
2023-03-24T07:02:19.283Z,9.745301
2023-03-24T07:03:19.384Z,9.745667
2023-03-24T07:04:19.269Z,9.745590
2023-03-24T07:05:19.268Z,9.745509
2023-03-24T07:06:19.289Z,9.745821
2023-03-24T07:08:06.068Z,9.745610
2023-03-24T07:08:36.679Z,9.745473
2023-03-24T07:09:21.228Z,9.745442
2023-03-24T07:10:19.227Z,9.745454
2023-03-24T07:11:19.243Z,9.745520
2023-03-24T07:12:19.203Z,9.745450
2023-03-24T07:13:19.200Z,9.745517
2023-03-24T07:14:19.189Z,9.745634
2023-03-24T07:15:19.182Z,9.745571
2023-03-24T07:16:19.269Z,9.745633
2023-03-24T07:17:19.165Z,9.745846
2023-03-24T07:18:19.208Z,9.745584
2023-03-24T07:19:19.157Z,9.745566
2023-03-24T07:20:19.136Z,9.745556
2023-03-24T07:21:19.161Z,9.745579
2023-03-24T07:22:19.122Z,9.745774
2023-03-24T07:23:19.128Z,9.745761
2023-03-24T07:24:19.111Z,9.745798
2023-03-24T07:25:19.099Z,9.745599
2023-03-24T07:26:19.119Z,9.745554
2023-03-24T07:27:19.092Z,9.745690
2023-03-24T07:28:19.080Z,9.745617
2023-03-24T07:29:19.065Z,9.745589
2023-03-24T07:30:24.200Z,9.745709
2023-03-24T07:31:21.114Z,9.745714
2023-03-24T07:32:19.051Z,9.745754
2023-03-24T07:33:19.031Z,9.745809
2023-03-24T07:34:19.227Z,9.745670
2023-03-24T07:35:19.026Z,9.745612
2023-03-24T07:36:19.083Z,9.745726
2023-03-24T07:37:19.009Z,9.745636
2023-03-24T07:38:18.996Z,9.745630
2023-03-24T07:39:18.991Z,9.745707
2023-03-24T07:40:18.990Z,9.745691
2023-03-24T07:41:19.005Z,9.745722
2023-03-24T07:42:18.967Z,9.745646
2023-03-24T07:43:18.972Z,9.745677
2023-03-24T07:44:18.951Z,9.745841
2023-03-24T07:45:18.938Z,9.744966
2023-03-24T07:46:19.023Z,9.745665
2023-03-24T07:47:18.918Z,9.745760
2023-03-24T07:48:18.924Z,9.745806
2023-03-24T07:49:20.082Z,9.745766
2023-03-24T07:50:19.898Z,9.745751
2023-03-24T07:51:18.917Z,9.745597
2023-03-24T07:52:18.881Z,9.745657
2023-03-24T07:53:18.877Z,9.745713
2023-03-24T07:54:18.878Z,9.745751
2023-03-24T07:55:18.858Z,9.745909
2023-03-24T07:56:18.888Z,9.745687
2023-03-24T07:57:18.847Z,9.746067
2023-03-24T07:58:18.847Z,9.745542
2023-03-24T07:59:18.870Z,9.745254
2023-03-24T08:00:19.029Z,9.746209
2023-03-24T08:01:18.847Z,9.745888
2023-03-24T08:02:18.885Z,9.746346
2023-03-24T08:03:18.901Z,9.746244
2023-03-24T08:04:18.936Z,9.745723
2023-03-24T08:05:18.784Z,9.745646
2023-03-24T08:06:18.809Z,9.745614
2023-03-24T08:07:18.768Z,9.745667
2023-03-24T08:08:18.791Z,9.745529
2023-03-24T08:09:18.762Z,9.745485
2023-03-24T08:10:18.740Z,9.745472
2023-03-24T08:11:18.761Z,9.745740
2023-03-24T08:12:20.772Z,9.745955
2023-03-24T08:13:19.740Z,9.745914
2023-03-24T08:14:18.713Z,9.745614
2023-03-24T08:15:18.732Z,9.745580
2023-03-24T08:16:18.747Z,9.745361
2023-03-24T08:17:18.698Z,9.745312
2023-03-24T08:18:18.680Z,9.745533
2023-03-24T08:19:18.668Z,9.745326
2023-03-24T08:20:18.669Z,9.745494
2023-03-24T08:21:18.661Z,9.745736
2023-03-24T08:22:18.684Z,9.745700
2023-03-24T08:23:18.653Z,9.745408
2023-03-24T08:24:18.635Z,9.745196
2023-03-24T08:25:18.758Z,9.745528
2023-03-24T08:26:18.618Z,9.745466
2023-03-24T08:27:18.633Z,9.745420
2023-03-24T08:28:18.614Z,9.745277
2023-03-24T08:29:18.600Z,9.745302
2023-03-24T08:30:18.586Z,9.745278
2023-03-24T08:31:18.599Z,9.745318
2023-03-24T08:32:18.596Z,9.745275
2023-03-24T08:33:18.561Z,9.745233
2023-03-24T08:34:18.553Z,9.745344
2023-03-24T08:35:18.611Z,9.745209
2023-03-24T08:36:18.560Z,9.745242
2023-03-24T08:37:18.558Z,9.745288
2023-03-24T08:38:19.185Z,9.745051
2023-03-24T08:39:19.511Z,9.745149
2023-03-24T08:40:18.538Z,9.745218
2023-03-24T08:41:18.509Z,9.745617
2023-03-24T08:42:18.532Z,9.745638
2023-03-24T08:43:18.501Z,9.745590
2023-03-24T08:44:18.471Z,9.745481
2023-03-24T08:45:18.464Z,9.745593
2023-03-24T08:46:18.479Z,9.745378
2023-03-24T08:47:18.488Z,9.745270
2023-03-24T08:48:18.491Z,9.745069
2023-03-24T08:49:18.435Z,9.745275
2023-03-24T08:50:18.424Z,9.745456
2023-03-24T08:51:18.417Z,9.745454
2023-03-24T08:52:18.442Z,9.745584
2023-03-24T08:53:18.402Z,9.745423
2023-03-24T08:54:18.420Z,9.745509
2023-03-24T08:55:18.391Z,9.746040
2023-03-24T08:56:18.373Z,9.745559
2023-03-24T08:57:18.390Z,9.745371
2023-03-24T08:58:18.357Z,9.745524
2023-03-24T08:59:18.348Z,9.745645
2023-03-24T09:00:18.343Z,9.745590
2023-03-24T09:01:19.377Z,9.745567
2023-03-24T09:02:18.358Z,9.745371
2023-03-24T09:03:18.608Z,9.745536
2023-03-24T09:04:18.354Z,9.745418
2023-03-24T09:05:18.482Z,9.745477
2023-03-24T09:06:18.295Z,9.745485
2023-03-24T09:07:18.312Z,9.745277
2023-03-24T09:08:18.304Z,9.745343
2023-03-24T09:09:18.275Z,9.745267
2023-03-24T09:10:18.263Z,9.745229
2023-03-24T09:11:18.279Z,9.745453
2023-03-24T09:12:18.247Z,9.745576
2023-03-24T09:13:18.272Z,9.745578
2023-03-24T09:14:18.241Z,9.745599
2023-03-24T09:15:18.258Z,9.745592
2023-03-24T09:16:18.267Z,9.745654
2023-03-24T09:17:18.205Z,9.745587
2023-03-24T09:18:18.244Z,9.745305
2023-03-24T09:19:18.222Z,9.745237
2023-03-24T09:20:19.197Z,9.745592
2023-03-24T09:21:18.193Z,9.745525
2023-03-24T09:22:18.168Z,9.745741
2023-03-24T09:23:18.261Z,9.745721
2023-03-24T09:24:18.158Z,9.745541
2023-03-24T09:25:18.209Z,9.745401
2023-03-24T09:26:18.143Z,9.745417
2023-03-24T09:27:18.141Z,9.745519
2023-03-24T09:28:18.150Z,9.745605
2023-03-24T09:29:18.113Z,9.745517
2023-03-24T09:30:18.103Z,9.745611
2023-03-24T09:31:18.168Z,9.745440
2023-03-24T09:32:18.095Z,9.745345
2023-03-24T09:33:18.127Z,9.745290
2023-03-24T09:34:18.073Z,9.745517
2023-03-24T09:35:18.067Z,9.745569
2023-03-24T09:36:18.122Z,9.745423
2023-03-24T09:37:18.053Z,9.745386
2023-03-24T09:38:18.070Z,9.745547
2023-03-24T09:39:19.740Z,9.745616
2023-03-24T09:40:19.024Z,9.745397
2023-03-24T09:41:18.018Z,9.745491
2023-03-24T09:42:18.023Z,9.745454
2023-03-24T09:43:18.028Z,9.745399
2023-03-24T09:44:18.008Z,9.745553
2023-03-24T09:45:17.992Z,9.745515
2023-03-24T09:46:18.010Z,9.745461
2023-03-24T09:47:17.973Z,9.745672
2023-03-24T09:48:17.991Z,9.745713
2023-03-24T09:49:17.954Z,9.745772
2023-03-24T09:50:17.968Z,9.745666
2023-03-24T09:51:17.935Z,9.745697
2023-03-24T09:52:18.937Z,9.745485
2023-03-24T09:53:17.957Z,9.745263
2023-03-24T09:54:17.914Z,9.745706
2023-03-24T09:55:17.910Z,9.745632
2023-03-24T09:56:17.909Z,9.745515
2023-03-24T09:57:17.918Z,9.745499
2023-03-24T09:58:17.905Z,9.745512
2023-03-24T09:59:17.882Z,9.745836
2023-03-24T10:00:17.863Z,9.745743
2023-03-24T10:01:17.998Z,9.745867
2023-03-24T10:02:17.849Z,9.746021
2023-03-24T10:03:17.921Z,9.745858
2023-03-24T10:04:17.851Z,9.745244
2023-03-24T10:05:17.828Z,9.745282
2023-03-24T10:06:18.825Z,9.745502
2023-03-24T10:07:17.810Z,9.745701
2023-03-24T10:08:17.843Z,9.746470
2023-03-24T10:09:17.800Z,9.745753
2023-03-24T10:10:17.781Z,9.745780
2023-03-24T10:11:17.826Z,9.745936
2023-03-24T10:12:17.771Z,9.745556
2023-03-24T10:13:17.803Z,9.745764
2023-03-24T10:14:17.762Z,9.745749
2023-03-24T10:15:24.245Z,9.745868
2023-03-24T10:16:19.775Z,9.745626
2023-03-24T10:17:17.738Z,9.745633
2023-03-24T10:18:17.728Z,9.745881
2023-03-24T10:19:17.758Z,9.745807
2023-03-24T10:20:17.718Z,9.745770
2023-03-24T10:21:17.709Z,9.745582
2023-03-24T10:22:17.697Z,9.745667
2023-03-24T10:23:17.697Z,9.745614
2023-03-24T10:24:17.724Z,9.745728
2023-03-24T10:25:17.672Z,9.745814
2023-03-24T10:26:17.677Z,9.745861
2023-03-24T10:27:17.670Z,9.745767
2023-03-24T10:28:17.657Z,9.745640
2023-03-24T10:29:17.675Z,9.745349
2023-03-24T10:30:17.653Z,9.745525
2023-03-24T10:31:17.678Z,9.745612
2023-03-24T10:32:17.621Z,9.745860
2023-03-24T10:33:17.646Z,9.745734
2023-03-24T10:34:17.629Z,9.745678
2023-03-24T10:35:17.594Z,9.745438
2023-03-24T10:36:17.634Z,9.745677
2023-03-24T10:37:17.592Z,9.745685
2023-03-24T10:38:17.580Z,9.745704
2023-03-24T10:39:22.477Z,9.745415
2023-03-24T10:40:19.556Z,9.745439
2023-03-24T10:41:17.553Z,9.745676
2023-03-24T10:42:17.546Z,9.745415
2023-03-24T10:43:17.542Z,9.745456
2023-03-24T10:44:17.558Z,9.745417
2023-03-24T10:45:17.527Z,9.745334
2023-03-24T10:46:17.657Z,9.745480
2023-03-24T10:47:17.510Z,9.745531
2023-03-24T10:48:17.503Z,9.745703
2023-03-24T10:49:17.526Z,9.745749
2023-03-24T10:50:17.499Z,9.745661
2023-03-24T10:51:17.477Z,9.745511
2023-03-24T10:52:17.480Z,9.745659
2023-03-24T10:53:17.471Z,9.745655
2023-03-24T10:54:17.487Z,9.745813
2023-03-24T10:55:17.472Z,9.745620
2023-03-24T10:56:17.438Z,9.745816
2023-03-24T10:57:17.425Z,9.745461
2023-03-24T10:58:17.427Z,9.745376
2023-03-24T10:59:17.436Z,9.745327
2023-03-24T11:00:17.414Z,9.745463
2023-03-24T11:01:17.413Z,9.745240
2023-03-24T11:02:17.438Z,9.745337
2023-03-24T11:03:17.453Z,9.745461
2023-03-24T11:04:17.402Z,9.745668
2023-03-24T11:05:17.360Z,9.745689
2023-03-24T11:06:17.353Z,9.745465
2023-03-24T11:07:17.362Z,9.745545
2023-03-24T11:08:17.350Z,9.745583
2023-03-24T11:09:17.359Z,9.745191
2023-03-24T11:10:17.342Z,9.745182
2023-03-24T11:11:17.332Z,9.745384
2023-03-24T11:12:17.313Z,9.745451
2023-03-24T11:13:18.836Z,9.745556
2023-03-24T11:14:18.320Z,9.745378
2023-03-24T11:15:21.463Z,9.745491
2023-03-24T11:16:19.320Z,9.745582
2023-03-24T11:17:17.266Z,9.745674
2023-03-24T11:18:17.258Z,9.745689
2023-03-24T11:19:18.320Z,9.745675
2023-03-24T11:20:18.275Z,9.745313
2023-03-24T11:21:17.235Z,9.745453
2023-03-24T11:22:17.223Z,9.745659
2023-03-24T11:23:17.226Z,9.745601
2023-03-24T11:24:17.215Z,9.745637
2023-03-24T11:25:17.225Z,9.745682
2023-03-24T11:26:17.202Z,9.745726
2023-03-24T11:27:17.181Z,9.745531
2023-03-24T11:28:18.175Z,9.745575
2023-03-24T11:29:17.183Z,9.745554
2023-03-24T11:30:17.207Z,9.745648
2023-03-24T11:31:17.265Z,9.745642
2023-03-24T11:32:17.158Z,9.745713
2023-03-24T11:33:17.135Z,9.745788
2023-03-24T11:34:17.132Z,9.745726
2023-03-24T11:35:17.149Z,9.745807
2023-03-24T11:36:17.144Z,9.745773
2023-03-24T11:37:17.098Z,9.745687
2023-03-24T11:38:17.133Z,9.745457
2023-03-24T11:39:17.090Z,9.745751
2023-03-24T11:40:17.206Z,9.745668
2023-03-24T11:41:17.073Z,9.745790
2023-03-24T11:42:17.080Z,9.745786
2023-03-24T11:43:17.065Z,9.745352
2023-03-24T11:44:17.060Z,9.745200